createdAt,value
2022-08-23T00:00:17.015Z,98.10
2022-08-23T00:02:49.493Z,98.40
2022-08-23T00:05:20.427Z,98.50
2022-08-23T00:07:51.356Z,98.60
2022-08-23T00:10:22.596Z,99.00
2022-08-23T00:12:53.666Z,99.20
2022-08-23T00:15:25.264Z,99.20
2022-08-23T00:17:56.424Z,99.40
2022-08-23T00:20:27.503Z,99.40
2022-08-23T00:22:58.516Z,99.40
2022-08-23T00:25:29.422Z,99.50
2022-08-23T00:28:00.684Z,99.60
2022-08-23T00:30:31.923Z,99.60
2022-08-23T00:33:04.768Z,99.90
2022-08-23T00:35:35.699Z,99.80
2022-08-23T00:38:33.026Z,99.90
2022-08-23T00:40:57.533Z,99.70
2022-08-23T00:43:55.992Z,99.80
2022-08-23T00:47:05.079Z,99.90
2022-08-23T00:49:38.202Z,99.90
2022-08-23T00:52:40.464Z,99.90
2022-08-23T00:55:12.375Z,99.90
2022-08-23T00:57:43.896Z,99.90
2022-08-23T01:00:18.808Z,99.90
2022-08-23T01:02:51.984Z,99.90
2022-08-23T01:05:32.071Z,99.90
2022-08-23T01:08:03.557Z,99.90
2022-08-23T01:10:52.642Z,99.90
2022-08-23T01:13:38.044Z,99.90
2022-08-23T01:16:23.023Z,99.90
2022-08-23T01:18:55.168Z,99.90
2022-08-23T01:22:05.687Z,99.90
2022-08-23T01:25:06.264Z,99.90
2022-08-23T01:27:30.501Z,99.90
2022-08-23T01:30:08.093Z,99.90
2022-08-23T01:32:48.633Z,99.90
2022-08-23T01:37:57.857Z,99.90
2022-08-23T01:40:29.288Z,99.90
2022-08-23T01:43:01.980Z,99.90
2022-08-23T01:45:34.558Z,99.90
2022-08-23T01:48:05.926Z,99.90
2022-08-23T01:53:09.961Z,99.90
2022-08-23T01:55:43.265Z,99.90
2022-08-23T01:58:14.429Z,99.90
2022-08-23T02:00:45.319Z,99.90
2022-08-23T02:03:17.154Z,99.90
2022-08-23T02:05:48.132Z,99.90
2022-08-23T02:08:37.770Z,99.90
2022-08-23T02:11:18.046Z,99.90
2022-08-23T02:13:53.250Z,99.90
2022-08-23T02:16:27.603Z,99.90
2022-08-23T02:19:02.421Z,99.90
2022-08-23T02:21:35.392Z,99.90
2022-08-23T02:24:19.918Z,99.90
2022-08-23T02:26:57.127Z,99.90
2022-08-23T02:29:31.402Z,99.90
2022-08-23T02:32:04.116Z,99.90
2022-08-23T02:37:24.547Z,99.90
2022-08-23T02:39:55.599Z,99.90
2022-08-23T02:42:26.625Z,99.90
2022-08-23T02:44:57.592Z,99.90
2022-08-23T02:47:28.663Z,99.90
2022-08-23T02:49:59.614Z,99.90
2022-08-23T02:52:31.165Z,99.90
2022-08-23T02:55:02.465Z,99.90
2022-08-23T02:57:33.628Z,99.90
2022-08-23T03:00:07.330Z,99.90
2022-08-23T03:02:39.442Z,99.90
2022-08-23T03:05:12.375Z,99.90
2022-08-23T03:07:44.334Z,99.90
2022-08-23T03:10:16.437Z,99.90
2022-08-23T03:12:47.458Z,99.90
2022-08-23T03:15:18.516Z,99.90
2022-08-23T03:17:49.939Z,99.90
2022-08-23T03:20:21.123Z,99.90
2022-08-23T03:22:54.688Z,99.90
2022-08-23T03:25:26.563Z,99.90
2022-08-23T03:27:58.276Z,99.90
2022-08-23T03:30:29.306Z,99.90
2022-08-23T03:33:01.916Z,99.90
2022-08-23T03:35:32.840Z,99.90
2022-08-23T03:38:03.834Z,99.90
2022-08-23T03:40:35.151Z,99.90
2022-08-23T03:43:06.219Z,99.90
2022-08-23T03:45:37.827Z,99.90
2022-08-23T03:48:08.838Z,99.90
2022-08-23T03:50:39.864Z,99.90
2022-08-23T03:53:12.321Z,99.90
2022-08-23T03:55:44.597Z,99.90
2022-08-23T03:58:15.594Z,99.90
2022-08-23T04:00:46.480Z,99.90
2022-08-23T04:03:17.613Z,99.90
2022-08-23T04:05:48.464Z,99.90
2022-08-23T04:08:27.065Z,99.90
2022-08-23T04:11:05.051Z,99.90
2022-08-23T04:13:36.570Z,99.90
2022-08-23T04:16:09.037Z,99.90
2022-08-23T04:18:40.590Z,99.90
2022-08-23T04:21:17.571Z,99.90
2022-08-23T04:23:48.898Z,99.90
2022-08-23T04:26:20.892Z,99.90
2022-08-23T04:28:51.845Z,99.90
2022-08-23T04:31:26.531Z,99.90
2022-08-23T04:33:57.429Z,99.90
2022-08-23T04:36:35.185Z,99.90
2022-08-23T04:39:07.089Z,99.90
2022-08-23T04:41:56.467Z,99.90
2022-08-23T04:44:27.482Z,99.90
2022-08-23T04:46:58.477Z,99.90
2022-08-23T04:49:29.570Z,99.90
2022-08-23T04:52:00.546Z,99.90
2022-08-23T04:54:31.613Z,99.90
2022-08-23T04:57:03.028Z,99.90
2022-08-23T04:59:34.029Z,99.90
2022-08-23T05:02:05.455Z,99.90
2022-08-23T05:04:36.569Z,99.90
2022-08-23T05:07:08.696Z,99.90
2022-08-23T05:09:39.558Z,99.90
2022-08-23T05:12:10.595Z,99.90
2022-08-23T05:14:41.487Z,99.90
2022-08-23T05:17:15.288Z,99.90
2022-08-23T05:19:46.828Z,99.90
2022-08-23T05:22:19.318Z,99.90
2022-08-23T05:24:50.216Z,99.90
2022-08-23T05:27:21.106Z,99.90
2022-08-23T05:29:54.368Z,99.90
2022-08-23T05:32:26.062Z,99.90
2022-08-23T05:34:57.910Z,99.90
2022-08-23T05:37:28.916Z,99.90
2022-08-23T05:39:59.874Z,99.90
2022-08-23T05:42:30.801Z,99.90
2022-08-23T05:45:01.660Z,99.90
2022-08-23T05:47:36.952Z,99.90
2022-08-23T05:50:09.242Z,99.90
2022-08-23T05:52:40.454Z,99.90
2022-08-23T05:55:11.351Z,99.90
2022-08-23T05:57:42.405Z,99.90
2022-08-23T06:00:15.496Z,99.90
2022-08-23T06:02:48.502Z,99.90
2022-08-23T06:05:19.713Z,99.90
2022-08-23T06:07:51.147Z,99.90
2022-08-23T06:10:22.212Z,99.90
2022-08-23T06:12:53.074Z,99.90
2022-08-23T06:15:23.936Z,99.90
2022-08-23T06:17:54.785Z,99.90
2022-08-23T06:20:25.902Z,99.90
2022-08-23T06:22:56.942Z,99.90
2022-08-23T06:25:28.688Z,99.90
2022-08-23T06:28:01.524Z,99.90
2022-08-23T06:30:37.010Z,99.90
2022-08-23T06:33:12.833Z,99.90
2022-08-23T06:35:43.923Z,99.90
2022-08-23T06:38:15.130Z,99.90
2022-08-23T06:40:46.073Z,99.90
2022-08-23T06:43:18.580Z,99.90
2022-08-23T06:45:54.966Z,99.90
2022-08-23T06:48:29.959Z,99.90
2022-08-23T06:51:00.821Z,99.90
2022-08-23T06:53:33.346Z,99.90
2022-08-23T06:56:05.148Z,99.90
2022-08-23T06:58:36.049Z,99.90
2022-08-23T07:01:43.996Z,99.90
2022-08-23T07:04:15.407Z,99.90
2022-08-23T07:06:47.271Z,99.90
2022-08-23T07:09:19.218Z,99.90
2022-08-23T07:11:52.170Z,99.90
2022-08-23T07:14:24.553Z,99.90
2022-08-23T07:17:01.317Z,99.90
2022-08-23T07:19:35.468Z,99.50
2022-08-23T07:22:07.690Z,99.20
2022-08-23T07:24:38.593Z,98.90
2022-08-23T07:27:10.119Z,98.70
2022-08-23T07:29:41.194Z,98.90
2022-08-23T07:32:12.429Z,98.80
2022-08-23T07:34:43.958Z,98.60
2022-08-23T07:37:16.641Z,98.40
2022-08-23T07:39:47.606Z,98.40
2022-08-23T07:42:23.026Z,98.10
2022-08-23T07:44:54.896Z,98.00
2022-08-23T07:47:28.437Z,97.70
2022-08-23T07:49:59.290Z,97.40
2022-08-23T07:52:30.311Z,97.20
2022-08-23T07:55:01.333Z,97.10
2022-08-23T07:57:32.202Z,97.20
2022-08-23T08:00:03.842Z,96.80
2022-08-23T08:02:34.907Z,96.40
2022-08-23T08:05:06.760Z,96.10
2022-08-23T08:07:38.051Z,96.00
2022-08-23T08:10:09.350Z,96.00
2022-08-23T08:12:40.318Z,95.60
2022-08-23T08:15:11.496Z,95.70
2022-08-23T08:17:42.358Z,95.70
2022-08-23T08:20:13.280Z,95.20
2022-08-23T08:22:48.522Z,94.80
2022-08-23T08:25:21.515Z,94.90
2022-08-23T08:27:52.385Z,94.80
2022-08-23T08:30:23.284Z,94.40
2022-08-23T08:32:54.228Z,94.20
2022-08-23T08:35:25.077Z,93.90
2022-08-23T08:37:56.392Z,93.80
2022-08-23T08:40:34.619Z,94.00
2022-08-23T08:43:29.849Z,93.70
2022-08-23T08:46:42.644Z,93.70
2022-08-23T08:49:53.872Z,93.20
2022-08-23T08:52:52.067Z,92.70
2022-08-23T08:55:30.408Z,92.70
2022-08-23T08:58:02.697Z,92.70
2022-08-23T09:00:38.746Z,91.40
2022-08-23T09:03:22.455Z,91.30
2022-08-23T09:06:01.860Z,90.80
2022-08-23T09:09:09.465Z,89.90
2022-08-23T09:12:20.987Z,88.30
2022-08-23T09:15:07.103Z,87.70
2022-08-23T09:17:53.032Z,87.50
2022-08-23T09:20:32.934Z,87.70
2022-08-23T09:23:15.978Z,87.40
2022-08-23T09:26:03.866Z,86.60
2022-08-23T09:28:37.138Z,86.60
2022-08-23T09:31:08.573Z,85.50
2022-08-23T09:33:45.972Z,85.50
2022-08-23T09:36:30.790Z,84.30
2022-08-23T09:39:31.289Z,84.40
2022-08-23T09:42:02.670Z,84.00
2022-08-23T09:44:43.506Z,84.10
2022-08-23T09:47:17.385Z,83.20
2022-08-23T09:49:48.599Z,83.10
2022-08-23T09:52:34.498Z,82.60
2022-08-23T09:55:12.772Z,81.30
2022-08-23T09:57:48.156Z,80.90
2022-08-23T10:00:32.482Z,79.70
2022-08-23T10:03:27.411Z,79.50
2022-08-23T10:06:01.187Z,78.10
2022-08-23T10:08:42.885Z,76.90
2022-08-23T10:11:21.594Z,77.00
2022-08-23T10:13:52.976Z,76.30
2022-08-23T10:17:20.964Z,76.20
2022-08-23T10:20:18.944Z,76.20
2022-08-23T10:23:04.748Z,75.10
2022-08-23T10:26:13.697Z,74.10
2022-08-23T10:29:40.987Z,72.40
2022-08-23T10:32:44.647Z,72.60
2022-08-23T10:35:54.956Z,71.30
2022-08-23T10:38:46.059Z,70.90
2022-08-23T10:42:06.387Z,70.10
2022-08-23T10:45:04.261Z,68.70
2022-08-23T10:47:42.378Z,68.90
2022-08-23T10:50:20.631Z,70.00
2022-08-23T10:52:57.958Z,70.10
2022-08-23T10:55:54.597Z,70.30
2022-08-23T10:58:29.268Z,70.20
2022-08-23T11:01:03.032Z,69.70
2022-08-23T11:04:01.582Z,69.90
2022-08-23T11:06:35.379Z,69.60
2022-08-23T11:09:19.937Z,69.30
2022-08-23T11:12:07.346Z,67.60
2022-08-23T11:14:55.952Z,66.60
2022-08-23T11:17:35.269Z,64.20
2022-08-23T11:20:11.778Z,62.00
2022-08-23T11:22:58.094Z,58.70
2022-08-23T11:25:28.981Z,58.40
2022-08-23T11:28:23.824Z,57.00
2022-08-23T11:31:15.772Z,56.50
2022-08-23T11:33:49.155Z,56.80
2022-08-23T11:36:24.715Z,56.20
2022-08-23T11:38:55.821Z,56.90
2022-08-23T11:41:34.879Z,56.00
2022-08-23T11:44:06.289Z,54.30
2022-08-23T11:46:54.517Z,54.20
2022-08-23T11:50:22.576Z,54.40
2022-08-23T11:53:29.124Z,56.60
2022-08-23T11:56:11.626Z,55.70
2022-08-23T11:59:08.873Z,55.70
2022-08-23T12:01:42.039Z,55.60
2022-08-23T12:04:42.082Z,56.30
2022-08-23T12:07:13.611Z,56.50
2022-08-23T12:09:55.940Z,56.70
2022-08-23T12:12:37.611Z,54.90
2022-08-23T12:15:13.277Z,54.90
2022-08-23T12:17:44.139Z,55.30
2022-08-23T12:20:30.593Z,54.80
2022-08-23T12:23:17.351Z,54.70
2022-08-23T12:26:11.205Z,55.60
2022-08-23T12:28:48.092Z,55.50
2022-08-23T12:31:39.929Z,56.10
2022-08-23T12:34:37.355Z,55.00
2022-08-23T12:37:36.887Z,55.00
2022-08-23T12:40:16.113Z,55.80
2022-08-23T12:42:47.526Z,55.70
2022-08-23T12:45:23.601Z,55.00
2022-08-23T12:48:02.506Z,55.00
2022-08-23T12:50:41.281Z,54.10
2022-08-23T12:53:17.126Z,54.70
2022-08-23T12:55:52.480Z,54.50
2022-08-23T12:58:33.236Z,54.30
2022-08-23T13:01:18.208Z,54.30
2022-08-23T13:03:55.706Z,54.50
2022-08-23T13:06:32.538Z,54.60
2022-08-23T13:09:08.387Z,53.20
2022-08-23T13:11:40.337Z,54.00
2022-08-23T13:14:31.267Z,53.60
2022-08-23T13:17:28.400Z,53.50
2022-08-23T13:20:02.353Z,53.80
2022-08-23T13:22:36.149Z,53.90
2022-08-23T13:25:35.755Z,53.60
2022-08-23T13:28:26.295Z,53.00
2022-08-23T13:31:02.804Z,52.90
2022-08-23T13:33:34.739Z,52.50
2022-08-23T13:36:13.815Z,52.50
2022-08-23T13:38:45.247Z,52.00
2022-08-23T13:41:38.999Z,52.80
2022-08-23T13:44:11.454Z,52.40
2022-08-23T13:46:47.603Z,53.20
2022-08-23T13:49:23.188Z,53.70
2022-08-23T13:52:11.940Z,53.50
2022-08-23T13:54:53.060Z,53.60
2022-08-23T13:57:26.459Z,54.10
2022-08-23T13:59:59.466Z,52.70
2022-08-23T14:02:30.350Z,52.50
2022-08-23T14:05:02.336Z,51.70
2022-08-23T14:07:33.757Z,52.00
2022-08-23T14:10:05.763Z,51.70
2022-08-23T14:12:37.024Z,51.90
2022-08-23T14:15:08.756Z,51.90
2022-08-23T14:17:47.466Z,51.70
2022-08-23T14:20:46.629Z,52.00
2022-08-23T14:23:12.127Z,53.00
2022-08-23T14:25:44.051Z,52.50
2022-08-23T14:28:14.990Z,51.90
2022-08-23T14:30:46.146Z,52.60
2022-08-23T14:33:17.132Z,52.10
2022-08-23T14:35:49.217Z,51.20
2022-08-23T14:38:20.538Z,51.50
2022-08-23T14:40:58.887Z,52.10
2022-08-23T14:43:30.853Z,52.60
2022-08-23T14:46:02.661Z,52.70
2022-08-23T14:48:33.814Z,52.20
2022-08-23T14:51:05.394Z,51.50
2022-08-23T14:53:37.919Z,52.40
2022-08-23T14:56:20.976Z,52.60
2022-08-23T14:58:52.577Z,52.00
2022-08-23T15:01:24.426Z,51.10
2022-08-23T15:03:55.468Z,51.60
2022-08-23T15:06:26.420Z,51.80
2022-08-23T15:08:57.530Z,52.10
2022-08-23T15:14:19.578Z,51.10
2022-08-23T15:16:50.600Z,51.50
2022-08-23T15:19:22.118Z,50.80
2022-08-23T15:21:53.058Z,51.50
2022-08-23T15:24:24.026Z,51.50
2022-08-23T15:26:59.649Z,52.00
2022-08-23T15:29:30.699Z,51.20
2022-08-23T15:32:01.686Z,51.50
2022-08-23T15:34:33.258Z,52.20
2022-08-23T15:37:06.453Z,51.30
2022-08-23T15:39:38.218Z,51.00
2022-08-23T15:42:09.355Z,51.20
2022-08-23T15:44:40.313Z,51.10
2022-08-23T15:47:28.290Z,51.00
2022-08-23T15:50:00.317Z,51.10
2022-08-23T15:52:31.318Z,51.00
2022-08-23T15:55:02.263Z,51.50
2022-08-23T15:57:47.959Z,51.40
2022-08-23T16:00:22.821Z,51.20
2022-08-23T16:03:19.094Z,50.40
2022-08-23T16:05:49.314Z,50.50
2022-08-23T16:08:31.569Z,50.80
2022-08-23T16:11:05.077Z,51.90
2022-08-23T16:13:36.439Z,51.50
2022-08-23T16:16:22.541Z,51.70
2022-08-23T16:18:55.294Z,51.00
2022-08-23T16:21:29.591Z,51.40
2022-08-23T16:24:01.411Z,51.40
2022-08-23T16:26:37.324Z,51.60
2022-08-23T16:29:13.468Z,51.90
2022-08-23T16:31:46.730Z,52.00
2022-08-23T16:34:20.369Z,52.30
2022-08-23T16:36:57.871Z,51.80
2022-08-23T16:39:29.706Z,52.60
2022-08-23T16:42:04.298Z,53.50
2022-08-23T16:44:38.210Z,54.10
2022-08-23T16:47:10.889Z,53.70
2022-08-23T16:49:43.194Z,53.80
2022-08-23T16:52:14.569Z,54.50
2022-08-23T16:54:45.598Z,53.50
2022-08-23T16:57:17.664Z,54.30
2022-08-23T16:59:49.371Z,54.40
2022-08-23T17:02:32.471Z,55.70
2022-08-23T17:05:06.421Z,54.50
2022-08-23T17:07:37.886Z,55.30
2022-08-23T17:10:11.980Z,53.80
2022-08-23T17:12:47.053Z,54.60
2022-08-23T17:15:26.008Z,53.70
2022-08-23T17:17:57.876Z,55.80
2022-08-23T17:20:33.774Z,54.50
2022-08-23T17:23:05.818Z,54.30
2022-08-23T17:25:38.290Z,55.50
2022-08-23T17:28:09.226Z,55.30
2022-08-23T17:30:40.397Z,54.80
2022-08-23T17:33:11.312Z,55.00
2022-08-23T17:35:43.856Z,55.60
2022-08-23T17:38:15.567Z,56.30
2022-08-23T17:40:47.243Z,55.90
2022-08-23T17:43:18.518Z,57.30
2022-08-23T17:45:57.376Z,56.40
2022-08-23T17:48:28.827Z,57.50
2022-08-23T17:51:00.937Z,57.80
2022-08-23T17:53:32.074Z,59.00
2022-08-23T17:56:06.437Z,59.30
2022-08-23T17:58:41.405Z,59.30
2022-08-23T18:01:12.541Z,59.80
2022-08-23T18:03:43.600Z,59.90
2022-08-23T18:06:17.176Z,60.30
2022-08-23T18:08:48.976Z,61.30
2022-08-23T18:11:19.882Z,61.70
2022-08-23T18:13:51.014Z,62.00
2022-08-23T18:16:22.193Z,62.20
2022-08-23T18:18:53.159Z,63.30
2022-08-23T18:21:24.838Z,63.80
2022-08-23T18:23:59.217Z,63.00
2022-08-23T18:26:48.691Z,63.20
2022-08-23T18:29:20.792Z,62.80
2022-08-23T18:31:54.826Z,63.80
2022-08-23T18:34:26.555Z,63.70
2022-08-23T18:36:59.273Z,64.10
2022-08-23T18:39:32.302Z,64.70
2022-08-23T18:42:06.170Z,65.30
2022-08-23T18:44:37.033Z,64.70
2022-08-23T18:47:08.273Z,66.10
2022-08-23T18:49:39.290Z,66.90
2022-08-23T18:52:10.150Z,66.50
2022-08-23T18:54:41.061Z,67.20
2022-08-23T18:57:16.065Z,67.80
2022-08-23T18:59:47.163Z,68.40
2022-08-23T19:02:18.347Z,68.70
2022-08-23T19:04:49.398Z,69.30
2022-08-23T19:07:20.361Z,69.20
2022-08-23T19:09:51.223Z,69.80
2022-08-23T19:12:22.124Z,70.00
2022-08-23T19:14:53.043Z,70.60
2022-08-23T19:17:24.337Z,70.80
2022-08-23T19:19:55.245Z,70.90
2022-08-23T19:22:26.324Z,71.50
2022-08-23T19:24:59.536Z,72.40
2022-08-23T19:27:30.698Z,73.30
2022-08-23T19:30:01.715Z,76.70
2022-08-23T19:32:34.431Z,74.70
2022-08-23T19:35:07.373Z,75.50
2022-08-23T19:37:38.573Z,74.10
2022-08-23T19:40:10.525Z,74.30
2022-08-23T19:42:41.572Z,73.70
2022-08-23T19:45:13.141Z,74.60
2022-08-23T19:47:44.141Z,73.90
2022-08-23T19:50:15.437Z,72.90
2022-08-23T19:52:55.002Z,75.10
2022-08-23T19:55:27.443Z,71.60
2022-08-23T19:57:58.891Z,73.10
2022-08-23T20:00:31.322Z,74.00
2022-08-23T20:03:02.922Z,81.20
2022-08-23T20:05:34.415Z,81.10
2022-08-23T20:08:05.332Z,75.00
2022-08-23T20:10:36.330Z,74.10
2022-08-23T20:13:07.245Z,76.20
2022-08-23T20:15:41.260Z,80.50
2022-08-23T20:18:12.103Z,75.80
2022-08-23T20:20:43.173Z,75.60
2022-08-23T20:23:32.816Z,77.00
2022-08-23T20:26:04.076Z,76.40
2022-08-23T20:28:35.067Z,76.30
2022-08-23T20:31:17.186Z,79.50
2022-08-23T20:33:49.050Z,79.40
2022-08-23T20:36:20.529Z,80.00
2022-08-23T20:38:51.500Z,80.30
2022-08-23T20:41:22.501Z,79.80
2022-08-23T20:43:53.901Z,79.20
2022-08-23T20:46:25.307Z,78.20
2022-08-23T20:48:59.472Z,78.70
2022-08-23T20:51:30.737Z,79.00
2022-08-23T20:54:09.185Z,81.40
2022-08-23T20:56:40.752Z,80.80
2022-08-23T20:59:13.032Z,81.80
2022-08-23T21:01:44.502Z,81.60
2022-08-23T21:04:15.458Z,82.40
2022-08-23T21:06:51.882Z,81.80
2022-08-23T21:09:29.130Z,83.70
2022-08-23T21:12:00.442Z,82.70
2022-08-23T21:14:31.588Z,83.40
2022-08-23T21:17:02.432Z,84.20
2022-08-23T21:19:33.344Z,83.80
2022-08-23T21:22:04.265Z,85.90
2022-08-23T21:24:35.333Z,83.90
2022-08-23T21:27:09.405Z,85.70
2022-08-23T21:29:40.897Z,85.90
2022-08-23T21:32:11.816Z,85.70
2022-08-23T21:34:42.712Z,86.00
2022-08-23T21:37:13.623Z,86.50
2022-08-23T21:39:44.600Z,87.10
2022-08-23T21:42:23.085Z,87.70
2022-08-23T21:44:54.576Z,88.90
2022-08-23T21:47:26.083Z,87.20
2022-08-23T21:49:56.975Z,88.30
2022-08-23T21:52:27.868Z,88.60
2022-08-23T21:54:58.855Z,88.30
2022-08-23T21:57:29.730Z,89.00
2022-08-23T22:00:03.121Z,89.00
2022-08-23T22:02:34.123Z,89.60
2022-08-23T22:05:06.964Z,90.10
2022-08-23T22:07:38.950Z,90.10
2022-08-23T22:10:10.797Z,90.00
2022-08-23T22:12:42.043Z,90.60
2022-08-23T22:15:13.583Z,90.20
2022-08-23T22:17:44.434Z,90.30
2022-08-23T22:20:15.488Z,90.60
2022-08-23T22:22:46.365Z,90.90
2022-08-23T22:25:17.625Z,90.70
2022-08-23T22:27:48.589Z,90.90
2022-08-23T22:30:20.522Z,91.10
2022-08-23T22:32:51.499Z,91.20
2022-08-23T22:35:22.457Z,91.40
2022-08-23T22:38:12.669Z,91.70
2022-08-23T22:40:50.571Z,91.70
2022-08-23T22:43:21.538Z,92.00
2022-08-23T22:46:00.460Z,92.40
2022-08-23T22:48:36.917Z,92.00
2022-08-23T22:51:13.765Z,92.10
2022-08-23T22:53:48.760Z,91.90
2022-08-23T22:56:27.027Z,92.20
2022-08-23T22:58:59.193Z,92.00
2022-08-23T23:01:37.687Z,92.00
2022-08-23T23:04:11.258Z,92.50
2022-08-23T23:06:42.791Z,92.70
2022-08-23T23:09:14.108Z,92.20
2022-08-23T23:11:46.162Z,92.70
2022-08-23T23:14:20.199Z,92.80
2022-08-23T23:16:53.113Z,92.90
2022-08-23T23:19:43.026Z,93.10
2022-08-23T23:22:16.746Z,93.10
2022-08-23T23:24:47.652Z,93.40
2022-08-23T23:27:18.572Z,92.70
2022-08-23T23:29:49.466Z,92.80
2022-08-23T23:32:21.069Z,93.90
2022-08-23T23:34:53.497Z,93.80
2022-08-23T23:37:24.433Z,93.90
2022-08-23T23:39:55.528Z,93.90
2022-08-23T23:42:26.788Z,94.00
2022-08-23T23:44:57.752Z,94.10
2022-08-23T23:47:28.997Z,94.20
2022-08-23T23:49:59.959Z,94.50
2022-08-23T23:52:30.986Z,94.70
2022-08-23T23:55:05.236Z,94.10
2022-08-23T23:57:36.169Z,93.60
